Home > Products > Valid Products > TAF

000
FTUS41 KALY 311400 AAB
TAFALB
TAF AMD
KALB 311413Z 3114/0112 VRB03KT P6SM SCT002 SCT040 BKN250
     FM311500 03004KT P6SM SCT050
     FM311700 06005KT P6SM OVC050
     FM010600 36005KT P6SM OVC040=



000
FTUS41 KALY 311300 AAA
TAFALB
TAF AMD
KALB 311338Z 3114/0112 00000KT 2SM BR BKN001 BKN250
      TEMPO 3114/3115 3SM BR SCT001 BKN250
     FM311500 VRB03KT P6SM SCT050
     FM311700 06005KT P6SM OVC050
     FM010600 36005KT P6SM OVC040=



000
FTUS41 KALY 311200 AAA
TAFPOU
TAF AMD
KPOU 311249Z 3113/0112 VRB02KT P6SM SCT003
      TEMPO 3113/3114 BKN003
     FM311400 VRB03KT P6SM SCT050
     FM311700 06004KT P6SM OVC050
     FM010200 02004KT P6SM OVC040
     FM011000 02007KT P6SM OVC030=



000
FTUS41 KALY 311100
TAFALB
TAF
KALB 311139Z 3112/0112 VRB03KT 3SM BR FEW001 SCT050 SCT250
      TEMPO 3112/3113 1/2SM FZFG VV001 SCT050
     FM311300 VRB03KT P6SM SCT050
      TEMPO 3113/3117 BKN050
     FM311700 06005KT P6SM OVC050
     FM010600 36005KT P6SM OVC040=



000
FTUS41 KALY 311100
TAFPOU
TAF
KPOU 311139Z 3112/0112 VRB02KT P6SM SKC
      TEMPO 3113/3117 BKN050
     FM311700 06004KT P6SM OVC050
     FM010200 02004KT P6SM OVC040
     FM011000 02007KT P6SM OVC030=



000
FTUS41 KALY 311100
TAFGFL
TAF
KGFL 311139Z 3112/0112 VRB02KT P6SM SCT050 SCT250
      TEMPO 3113/3117 BKN050
     FM311700 07005KT P6SM OVC050
     FM010100 01004KT P6SM OVC040=



000
FTUS41 KALY 310500
TAFALB
TAF
KALB 310530Z 3106/0106 VRB03KT P6SM SCT250
     FM311200 VRB03KT P6SM SCT050 BKN150
     FM311700 06005KT P6SM BKN050 OVC100=



000
FTUS41 KALY 310500
TAFPOU
TAF
KPOU 310530Z 3106/0106 VRB02KT P6SM BKN050
     FM311600 06004KT P6SM OVC050
     FM010100 02004KT P6SM OVC040=



000
FTUS41 KALY 310500
TAFGFL
TAF
KGFL 310530Z 3106/0106 00000KT P6SM SCT050 SCT250
      TEMPO 3107/3111 3SM BR
     FM311300 07004KT P6SM BKN050 OVC150
     FM311600 07005KT P6SM OVC050=



000
FTUS41 KALY 302300
TAFALB
TAF
KALB 302320Z 3100/3124 28011KT P6SM FEW060
     FM310200 33004KT P6SM SCT050 SCT250
     FM310600 VRB03KT P6SM BKN250
     FM311500 07005KT P6SM SCT050 BKN150
     FM311800 12005KT P6SM OVC100=



000
FTUS41 KALY 302300
TAFPOU
TAF
KPOU 302320Z 3100/3124 26005KT P6SM BKN050
     FM310400 00000KT P6SM SKC
     FM311600 05005KT P6SM SCT050 BKN200
     FM311800 06004KT P6SM OVC100=



000
FTUS41 KALY 302300
TAFGFL
TAF
KGFL 302320Z 3100/3124 32006KT P6SM SCT050
     FM310600 00000KT P6SM BKN250
     FM311500 07005KT P6SM SCT050 BKN150
     FM311800 09005KT P6SM OVC100=



000
FTUS41 KALY 302000 RRA
TAFPOU
TAF
KPOU 302027Z 3020/3118 32008KT P6SM BKN050
     FM302300 34004KT P6SM SCT060
     FM310400 00000KT P6SM SKC
     FM311600 05005KT P6SM SCT050 BKN200=



000
FTUS41 KALY 302000 RRA
TAFALB
TAF
KALB 302027Z 3020/3118 29010G15KT P6SM BKN050
     FM310200 33004KT P6SM SCT050 SCT250
     FM310600 VRB03KT P6SM BKN250
     FM311500 07005KT P6SM SCT050 BKN150=



000
FTUS41 KALY 302000 RRA
TAFGFL
TAF
KGFL 302027Z 3020/3118 31008KT P6SM BKN050
     FM310000 32006KT P6SM SCT050
     FM310600 00000KT P6SM BKN250
     FM311500 07005KT P6SM SCT050 BKN150=



000
FTUS41 KALY 301700
TAFGFL
TAF
KGFL 301727Z 3018/3118 31008KT P6SM BKN050
     FM310000 32006KT P6SM SCT050
     FM310600 00000KT P6SM BKN250
     FM311500 07005KT P6SM SCT050 BKN150=



000
FTUS41 KALY 301700
TAFALB
TAF
KALB 301727Z 3018/3118 29010G15KT P6SM BKN050
     FM310200 33004KT P6SM SCT050 SCT250
     FM310600 VRB03KT P6SM BKN250
     FM311500 07005KT P6SM SCT050 BKN150=



000
FTUS41 KALY 301700
TAFPOU
TAF
KPOU 301727Z 3018/3118 32008KT P6SM BKN050
     FM302300 34004KT P6SM SCT060
     FM310400 00000KT P6SM SKC
     FM311600 05005KT P6SM SCT050 BKN200=



000
FTUS41 KALY 301700
TAFPOU
TAF
KPOU 301727Z 3018/3118 32008KT P6SM BKN050
     FM302300 34004KT P6SM SCT060
     FM310400 00000KT P6SM SKC
     FM311600 05005KT P6SM SCT050 BKN200=



000
FTUS41 KALY 301700
TAFALB
TAF
KALB 301727Z 3018/3118 29010G15KT P6SM BKN050
     FM310200 33004KT P6SM SCT050 SCT250
     FM310600 VRB03KT P6SM BKN250
     FM311500 07005KT P6SM SCT050 BKN150=



000
FTUS41 KALY 301700
TAFGFL
TAF
KGFL 301727Z 3018/3118 31008KT P6SM BKN050
     FM310000 32006KT P6SM SCT050
     FM310600 00000KT P6SM BKN250
     FM311500 07005KT P6SM SCT050 BKN150=



000
FTUS41 KALY 301100
TAFPOU
TAF
KPOU 301132Z 3012/3112 00000KT P6SM BKN080
      TEMPO 3012/3013 4SM BR
     FM301400 29006KT P6SM OVC060
     FM301800 31007KT P6SM BKN060
     FM302300 34004KT P6SM SCT060
     FM310400 00000KT P6SM SKC=



000
FTUS41 KALY 301100
TAFALB
TAF
KALB 301132Z 3012/3112 26005KT P6SM SCT030 OVC070
     FM301400 29004KT P6SM OVC060
     FM301700 30007KT P6SM BKN050
     FM310200 33004KT P6SM SCT050 SCT250
     FM310600 VRB03KT P6SM BKN250=



000
FTUS41 KALY 301100
TAFGFL
TAF
KGFL 301132Z 3012/3112 25005KT P6SM OVC070
     FM301600 29005KT P6SM BKN050
     FM302100 32006KT P6SM SCT050
     FM310400 00000KT P6SM BKN250=



000
FTUS41 KALY 301000 AAB
TAFPOU
TAF AMD
KPOU 301059Z 3011/3106 00000KT P6SM BKN080
      TEMPO 3011/3013 4SM BR
     FM301400 29006KT P6SM OVC060
     FM301800 31007KT P6SM BKN060
     FM302300 34004KT P6SM SCT060=



000
FTUS41 KALY 301000 AAB
TAFPOU
TAF AMD
KPOU 301059Z 3011/3106 00000KT P6SM BKN080
      TEMPO 3011/3013 4SM BR
     FM301400 29006KT P6SM OVC060
     FM301800 31007KT P6SM BKN060
     FM302300 34004KT P6SM SCT060=



000
FTUS41 KALY 300600 AAA
TAFPOU
TAF AMD
KPOU 300631Z 3007/3106 00000KT P6SM SCT001 OVC070
      TEMPO 3007/3009 2SM BR BKN001
     FM301400 29006KT P6SM OVC060
     FM301800 31007KT P6SM BKN060
     FM302300 34004KT P6SM SCT060=



000
FTUS41 KALY 300500 CCA
TAFPOU
TAF COR
KPOU 300552Z 3006/3106 00000KT 1/2SM FG VV002
      TEMPO 3010/3012 2SM BR SCT002
     FM301200 00000KT 2SM BR SCT002 OVC060
     FM301400 29006KT P6SM OVC060
     FM301800 31007KT P6SM BKN060
     FM302300 34004KT P6SM SCT060=



000
FTUS41 KALY 300500 RRA
TAFALB
TAF
KALB 300542Z 3006/3106 VRB03KT P6SM OVC080
     FM301200 29004KT P6SM OVC060
     FM301600 31006KT P6SM BKN050
     FM302100 32008KT P6SM BKN050
     FM310200 33004KT P6SM SCT050 SCT250=



000
FTUS41 KALY 300500 RRA
TAFGFL
TAF
KGFL 300542Z 3006/3106 00000KT P6SM OVC080
     FM301200 VRB03KT P6SM OVC060
     FM301600 29005KT P6SM BKN050
     FM302300 32006KT P6SM SCT050=



000
FTUS41 KALY 300500 RRA
TAFPOU
TAF
KPOU 300542Z 3006/3106 00000KT 1/4SM FG VV002
     FM301200 00000KT 2SM BR SCT002 OVC060
     FM301400 29006KT P6SM OVC060
     FM301800 31007KT P6SM BKN060
     FM302300 34004KT P6SM SCT060=



000
FTUS41 KALY 300300 AAH
TAFPOU
TAF AMD
KPOU 300321Z 3003/3024 00000KT 1/4SM FG VV002
     FM300600 00000KT P6SM SCT120 SCT200
     FM301500 31006KT P6SM SCT035=



000
FTUS41 KALY 300100 AAG
TAFPOU
TAF AMD
KPOU 300150Z 3002/3024 00000KT 1/4SM FG VV002
     FM300300 VRB03KT P6SM BKN250
     FM300600 00000KT P6SM SCT120 SCT200
     FM301500 31006KT P6SM SCT035=



000
FTUS41 KALY 300100 AAF
TAFPOU
TAF AMD
KPOU 300140Z 3002/3024 00000KT 3/4SM BR VV002
     FM300300 VRB03KT P6SM BKN250
     FM300600 00000KT P6SM SCT120 SCT200
     FM301500 31006KT P6SM SCT035=



000
FTUS41 KALY 300100 AAE
TAFPOU
TAF AMD
KPOU 300133Z 3002/3024 00000KT 3SM BR FEW002
     FM300300 VRB03KT P6SM BKN250
     FM300600 00000KT P6SM SCT120 SCT200
     FM301500 31006KT P6SM SCT035=



000
FTUS41 KALY 300100 AAD
TAFPOU
TAF AMD
KPOU 300115Z 3001/3024 00000KT 3/4SM BR VV002
     FM300300 VRB03KT P6SM BKN250
     FM300600 00000KT P6SM SCT120 SCT200
     FM301500 31006KT P6SM SCT035=



000
FTUS41 KALY 300000 AAC
TAFPOU
TAF AMD
KPOU 300045Z 3001/3024 00000KT 5SM BR FEW002
     FM300300 VRB03KT P6SM BKN250
     FM300600 00000KT P6SM SCT120 SCT200
     FM301500 31006KT P6SM SCT035=



000
FTUS41 KALY 300000 AAB
TAFPOU
TAF AMD
KPOU 300034Z 3001/3024 00000KT 1 1/2SM BR FEW002
     FM300300 VRB03KT P6SM BKN250
     FM300600 00000KT P6SM SCT120 SCT200
     FM301500 31006KT P6SM SCT035=



000
FTUS41 KALY 300000 AAA
TAFPOU
TAF AMD
KPOU 300032Z 3001/3024 00000KT 3/4SM BR VV002
     FM300300 VRB03KT P6SM BKN250
     FM300600 00000KT P6SM SCT120 SCT200
     FM301500 31006KT P6SM SCT035=



000
FTUS41 KALY 292300
TAFPOU
TAF
KPOU 292320Z 3000/3024 00000KT P6SM SCT045 OVC090
     FM300300 VRB03KT P6SM BKN250
     FM300600 00000KT P6SM SCT120 SCT200
     FM301500 31006KT P6SM SCT035=



000
FTUS41 KALY 292300
TAFALB
TAF
KALB 292320Z 3000/3024 28004KT P6SM BKN060 OVC200
     FM300600 29004KT P6SM BKN050
     FM301200 31006KT P6SM OVC035
     FM301800 30007KT P6SM SCT035=



000
FTUS41 KALY 292300
TAFGFL
TAF
KGFL 292320Z 3000/3024 29005KT P6SM OVC070
     FM300600 VRB03KT P6SM BKN050
     FM301200 VRB03KT P6SM OVC035
     FM301900 32006KT P6SM SCT035=



000
FTUS41 KALY 291700
TAFPOU
TAF
KPOU 291720Z 2918/3018 27007KT P6SM VCSH OVC060
     FM292300 28005KT P6SM OVC100
     FM300300 VRB03KT P6SM BKN250
     FM300600 00000KT P6SM SCT120 SCT200=



000
FTUS41 KALY 291700
TAFGFL
TAF
KGFL 291720Z 2918/3018 VRB03KT P6SM VCSH OVC050
     FM292200 26007KT P6SM OVC100
     FM300600 VRB03KT P6SM BKN050
     FM301200 VRB03KT P6SM OVC035=



000
FTUS41 KALY 291700
TAFALB
TAF
KALB 291720Z 2918/3018 VRB03KT 6SM -SHRA BR BKN040 OVC100
     FM292300 29006KT P6SM OVC100
     FM300600 29004KT P6SM BKN050
     FM301200 31006KT P6SM OVC035=



000
FTUS41 KALY 291500 AAB
TAFALB
TAF AMD
KALB 291515Z 2915/3012 29006KT 6SM -RA BR BKN035 OVC100
      TEMPO 2915/2916 4SM -RA BR OVC030
     FM291800 27012KT P6SM SCT045 OVC120
     FM300000 28008KT P6SM BKN120
     FM300400 29005KT P6SM SCT120 BKN250
     FM300800 31005KT P6SM SCT060 OVC120=



000
FTUS41 KALY 291400 AAA
TAFALB
TAF AMD
KALB 291433Z 2915/3012 24004KT 6SM -RA BR OVC035
      TEMPO 2915/2916 4SM -RA BR OVC030
     FM291800 27012KT P6SM SCT045 OVC120
     FM300000 28008KT P6SM BKN120
     FM300400 29005KT P6SM SCT120 BKN250
     FM300800 31005KT P6SM SCT060 OVC120=



000
FTUS41 KALY 291100
TAFPOU
TAF
KPOU 291136Z 2912/3012 00000KT P6SM BKN200
     FM291400 VRB03KT P6SM VCSH BKN080 OVC200
     FM291600 26005KT 6SM -SHRA BR OVC050
     FM291900 27007KT P6SM VCSH OVC060
     FM292300 28005KT P6SM OVC100
     FM300300 VRB03KT P6SM BKN250
     FM300600 00000KT P6SM SCT120 OVC200=



000
FTUS41 KALY 291100
TAFALB
TAF
KALB 291136Z 2912/3012 VRB03KT 6SM -RA BR SCT015 OVC050
      TEMPO 2912/2914 3SM -RA BR BKN015
     FM291400 24008KT P6SM VCSH OVC035
     FM291800 27012KT P6SM SCT045 OVC120
     FM300000 28008KT P6SM BKN120
     FM300400 29005KT P6SM SCT120 BKN250
     FM300800 31005KT P6SM SCT060 OVC120=



000
FTUS41 KALY 291100
TAFGFL
TAF
KGFL 291136Z 2912/3012 VRB03KT P6SM OVC040
      TEMPO 2912/2914 4SM -SHRA BR BKN020
     FM291400 23008KT P6SM VCSH SCT035 OVC120
     FM292100 26009KT P6SM BKN120
     FM300200 25004KT P6SM SCT200
     FM300600 22004KT P6SM SCT060 OVC200=



000
FTUS41 KALY 291000 AAA
TAFGFL
TAF AMD
KGFL 291044Z 2911/3006 00000KT P6SM OVC040
      TEMPO 2911/2914 4SM -SHRA BR BKN020
     FM291400 22006KT P6SM VCSH SCT035 OVC120
     FM292100 26009KT P6SM BKN120
     FM300200 25004KT P6SM BKN200=



000
FTUS41 KALY 291000 AAA
TAFGFL
TAF AMD
KGFL 291044Z 2911/3006 00000KT P6SM OVC040
      TEMPO 2911/2914 4SM -SHRA BR BKN020
     FM291400 22006KT P6SM VCSH SCT035 OVC120
     FM292100 26009KT P6SM BKN120
     FM300200 25004KT P6SM BKN200=



000
FTUS41 KALY 291000 AAA
TAFALB
TAF AMD
KALB 291043Z 2911/3006 VRB03KT 6SM -RA BR SCT015 OVC050
      TEMPO 2911/2913 4SM -RA BR BKN015
     FM291400 22008KT P6SM VCSH OVC035
     FM291800 27012KT P6SM SCT045 OVC120
     FM300000 28008KT P6SM BKN120
     FM300400 29005KT P6SM SCT120 BKN250=



000
FTUS41 KALY 291000 AAA
TAFALB
TAF AMD
KALB 291043Z 2911/3006 VRB03KT 6SM -RA BR SCT015 OVC050
      TEMPO 2911/2913 4SM -RA BR BKN015
     FM291400 22008KT P6SM VCSH OVC035
     FM291800 27012KT P6SM SCT045 OVC120
     FM300000 28008KT P6SM BKN120
     FM300400 29005KT P6SM SCT120 BKN250=



000
FTUS41 KALY 290500 RRA
TAFGFL
TAF
KGFL 290546Z 2906/3006 00000KT P6SM OVC100
     FM290800 VRB03KT P6SM VCSH SCT020 OVC060
      TEMPO 2908/2912 4SM -SHRA BR BKN020
     FM291500 22006KT P6SM VCSH SCT035 OVC120
     FM292100 26009KT P6SM BKN120
     FM300200 25004KT P6SM BKN200=



000
FTUS41 KALY 290500 RRA
TAFPOU
TAF
KPOU 290546Z 2906/3006 00000KT P6SM BKN200
     FM291100 VRB03KT P6SM VCSH BKN080 OVC200
     FM291500 26005KT 6SM -SHRA BR OVC050
     FM291900 27007KT P6SM VCSH OVC060
     FM292300 28005KT P6SM OVC100
     FM300300 VRB03KT P6SM BKN250=



000
FTUS41 KALY 290500 RRA
TAFALB
TAF
KALB 290546Z 2906/3006 18010KT P6SM BKN100 BKN200
     FM290900 19008KT P6SM VCSH OVC060
      TEMPO 2909/2912 5SM -SHRA BR OVC035
     FM291200 22008KT P6SM VCSH OVC035
     FM291800 27012KT P6SM SCT045 OVC120
     FM300000 28008KT P6SM BKN120
     FM300400 29005KT P6SM SCT120 BKN250=



000
FTUS41 KALY 282300
TAFALB
TAF
KALB 282320Z 2900/2924 18010KT P6SM SCT130 BKN200
     FM290400 18005KT P6SM VCSH SCT050 BKN100
     FM290700 18005KT 5SM -SHRA BR SCT025 OVC035
     FM291000 VRB04KT 4SM -SHRA BR BKN015 OVC025
     FM291500 26008KT P6SM OVC035
     FM291800 26010KT P6SM OVC045=



000
FTUS41 KALY 282300
TAFGFL
TAF
KGFL 282320Z 2900/2924 18005KT P6SM SCT130 BKN200
     FM290300 VRB02KT P6SM VCSH SCT030 BKN050 OVC100
     FM290600 VRB02KT 4SM -SHRA BR BKN020 OVC030
     FM291000 VRB02KT 3SM -SHRA BR SCT008 OVC015
     FM291500 23006KT P6SM VCSH OVC035
     FM292100 25008KT P6SM OVC045=



000
FTUS41 KALY 282300
TAFPOU
TAF
KPOU 282320Z 2900/2924 VRB03KT P6SM SCT130 BKN200
     FM290900 VRB02KT 5SM BR VCSH SCT040 OVC080
     FM291400 25005KT 6SM -SHRA BR SCT025 OVC035
     FM291800 28006KT P6SM OVC045=



000
FTUS41 KALY 281700
TAFPOU
TAF
KPOU 281736Z 2818/2918 VRB03KT P6SM SCT130 BKN200
     FM290900 VRB02KT 5SM BR VCSH SCT040 OVC080
     FM291400 25005KT 6SM -SHRA BR SCT025 OVC035=



000
FTUS41 KALY 281700
TAFGFL
TAF
KGFL 281736Z 2818/2918 18005KT P6SM SCT130 BKN200
     FM290300 VRB02KT P6SM VCSH SCT030 BKN050 OVC100
     FM290600 VRB02KT 4SM -SHRA BR BKN020 OVC030
     FM291000 VRB02KT 3SM -SHRA BR SCT008 OVC015
     FM291500 23006KT P6SM VCSH OVC035=



000
FTUS41 KALY 281700
TAFALB
TAF
KALB 281736Z 2818/2918 18010KT P6SM SCT130 BKN200
     FM290400 18006KT P6SM VCSH SCT050 BKN100
     FM290700 18005KT 5SM -SHRA BR SCT025 OVC035
     FM291000 VRB04KT 4SM -SHRA BR BKN015 OVC025
     FM291500 26008KT P6SM OVC035=



    US Dept of Commerce
    National Oceanic and Atmospheric Administration
    National Weather Service
    1325 East West Highway
    Silver Spring, MD 20910
    Page Author: NWS Internet Services Team
Disclaimer
Information Quality
Credits
Glossary
Privacy Policy
Freedom of Information Act (FOIA)
About Us
Career Opportunities